sensor_id;sensor_type;location;lat;lon;timestamp;P1;durP1;ratioP1;P2;durP2;ratioP2
13872;SDS011;7006;51.494;11.964;2022-09-12T00:01:42;13.27;;;11.27;;
13872;SDS011;7006;51.494;11.964;2022-09-12T00:04:08;13.47;;;11.43;;
13872;SDS011;7006;51.494;11.964;2022-09-12T00:06:36;13.47;;;10.80;;
13872;SDS011;7006;51.494;11.964;2022-09-12T00:09:04;14.47;;;11.80;;
13872;SDS011;7006;51.494;11.964;2022-09-12T00:11:33;15.33;;;11.83;;
13872;SDS011;7006;51.494;11.964;2022-09-12T00:14:00;12.37;;;11.07;;
13872;SDS011;7006;51.494;11.964;2022-09-12T00:16:29;13.90;;;11.20;;
13872;SDS011;7006;51.494;11.964;2022-09-12T00:18:57;14.23;;;12.23;;
13872;SDS011;7006;51.494;11.964;2022-09-12T00:21:23;13.23;;;11.30;;
13872;SDS011;7006;51.494;11.964;2022-09-12T00:23:50;13.70;;;11.57;;
13872;SDS011;7006;51.494;11.964;2022-09-12T00:26:17;13.63;;;11.87;;
13872;SDS011;7006;51.494;11.964;2022-09-12T00:28:44;14.20;;;12.00;;
13872;SDS011;7006;51.494;11.964;2022-09-12T00:31:11;16.80;;;12.73;;
13872;SDS011;7006;51.494;11.964;2022-09-12T00:33:42;14.90;;;12.10;;
13872;SDS011;7006;51.494;11.964;2022-09-12T00:36:09;14.07;;;11.60;;
13872;SDS011;7006;51.494;11.964;2022-09-12T00:38:38;14.10;;;11.57;;
13872;SDS011;7006;51.494;11.964;2022-09-12T00:41:06;16.23;;;12.33;;
13872;SDS011;7006;51.494;11.964;2022-09-12T00:43:34;14.93;;;12.50;;
13872;SDS011;7006;51.494;11.964;2022-09-12T00:46:03;14.73;;;11.90;;
13872;SDS011;7006;51.494;11.964;2022-09-12T00:48:32;15.57;;;12.73;;
13872;SDS011;7006;51.494;11.964;2022-09-12T00:51:03;17.30;;;12.37;;
13872;SDS011;7006;51.494;11.964;2022-09-12T00:53:30;14.10;;;11.07;;
13872;SDS011;7006;51.494;11.964;2022-09-12T00:55:57;16.07;;;12.00;;
13872;SDS011;7006;51.494;11.964;2022-09-12T00:58:24;16.93;;;12.27;;
13872;SDS011;7006;51.494;11.964;2022-09-12T01:00:52;14.77;;;11.40;;
13872;SDS011;7006;51.494;11.964;2022-09-12T01:03:19;15.53;;;12.40;;
13872;SDS011;7006;51.494;11.964;2022-09-12T01:05:49;14.73;;;12.47;;
13872;SDS011;7006;51.494;11.964;2022-09-12T01:08:19;15.30;;;12.33;;
13872;SDS011;7006;51.494;11.964;2022-09-12T01:10:46;16.20;;;12.70;;
13872;SDS011;7006;51.494;11.964;2022-09-12T01:13:13;17.07;;;12.80;;
13872;SDS011;7006;51.494;11.964;2022-09-12T01:15:40;17.03;;;12.80;;
13872;SDS011;7006;51.494;11.964;2022-09-12T01:18:09;14.40;;;12.40;;
13872;SDS011;7006;51.494;11.964;2022-09-12T01:20:42;17.53;;;12.90;;
13872;SDS011;7006;51.494;11.964;2022-09-12T01:23:19;16.40;;;12.40;;
13872;SDS011;7006;51.494;11.964;2022-09-12T01:26:02;14.47;;;12.70;;
13872;SDS011;7006;51.494;11.964;2022-09-12T01:28:49;16.20;;;12.90;;
13872;SDS011;7006;51.494;11.964;2022-09-12T01:31:26;18.10;;;13.33;;
13872;SDS011;7006;51.494;11.964;2022-09-12T01:33:56;16.30;;;12.60;;
13872;SDS011;7006;51.494;11.964;2022-09-12T01:36:31;15.57;;;12.60;;
13872;SDS011;7006;51.494;11.964;2022-09-12T01:39:02;15.43;;;12.67;;
13872;SDS011;7006;51.494;11.964;2022-09-12T01:41:35;14.90;;;12.23;;
13872;SDS011;7006;51.494;11.964;2022-09-12T01:44:08;14.83;;;12.37;;
13872;SDS011;7006;51.494;11.964;2022-09-12T01:46:41;15.57;;;12.13;;
13872;SDS011;7006;51.494;11.964;2022-09-12T01:49:11;15.53;;;12.17;;
13872;SDS011;7006;51.494;11.964;2022-09-12T01:51:41;14.00;;;11.40;;
13872;SDS011;7006;51.494;11.964;2022-09-12T01:54:12;14.63;;;11.77;;
13872;SDS011;7006;51.494;11.964;2022-09-12T01:56:42;13.23;;;11.43;;
13872;SDS011;7006;51.494;11.964;2022-09-12T01:59:12;16.87;;;11.20;;
13872;SDS011;7006;51.494;11.964;2022-09-12T02:01:44;16.73;;;12.03;;
13872;SDS011;7006;51.494;11.964;2022-09-12T02:04:13;17.03;;;11.57;;
13872;SDS011;7006;51.494;11.964;2022-09-12T02:06:43;13.00;;;11.53;;
13872;SDS011;7006;51.494;11.964;2022-09-12T02:09:14;15.23;;;11.90;;
13872;SDS011;7006;51.494;11.964;2022-09-12T02:11:44;14.80;;;11.00;;
13872;SDS011;7006;51.494;11.964;2022-09-12T02:14:13;16.07;;;11.63;;
13872;SDS011;7006;51.494;11.964;2022-09-12T02:16:43;13.73;;;12.00;;
13872;SDS011;7006;51.494;11.964;2022-09-12T02:19:11;17.53;;;13.23;;
13872;SDS011;7006;51.494;11.964;2022-09-12T02:21:42;16.63;;;11.83;;
13872;SDS011;7006;51.494;11.964;2022-09-12T02:24:11;15.47;;;12.90;;
13872;SDS011;7006;51.494;11.964;2022-09-12T02:26:40;18.23;;;12.87;;
13872;SDS011;7006;51.494;11.964;2022-09-12T02:29:09;14.10;;;12.30;;
13872;SDS011;7006;51.494;11.964;2022-09-12T02:31:37;16.83;;;13.00;;
13872;SDS011;7006;51.494;11.964;2022-09-12T02:34:11;13.30;;;11.63;;
13872;SDS011;7006;51.494;11.964;2022-09-12T02:36:45;15.43;;;12.57;;
13872;SDS011;7006;51.494;11.964;2022-09-12T02:39:15;14.93;;;13.03;;
13872;SDS011;7006;51.494;11.964;2022-09-12T02:41:44;15.70;;;12.93;;
13872;SDS011;7006;51.494;11.964;2022-09-12T02:44:11;15.87;;;13.20;;
13872;SDS011;7006;51.494;11.964;2022-09-12T02:46:38;15.57;;;12.30;;
13872;SDS011;7006;51.494;11.964;2022-09-12T02:49:06;14.03;;;11.80;;
13872;SDS011;7006;51.494;11.964;2022-09-12T02:51:34;17.20;;;11.60;;
13872;SDS011;7006;51.494;11.964;2022-09-12T02:54:01;17.23;;;13.37;;
13872;SDS011;7006;51.494;11.964;2022-09-12T02:56:30;16.73;;;11.90;;
13872;SDS011;7006;51.494;11.964;2022-09-12T02:58:58;19.70;;;13.27;;
13872;SDS011;7006;51.494;11.964;2022-09-12T03:01:28;18.00;;;12.87;;
13872;SDS011;7006;51.494;11.964;2022-09-12T03:04:11;13.97;;;10.97;;
13872;SDS011;7006;51.494;11.964;2022-09-12T03:06:54;15.27;;;11.80;;
13872;SDS011;7006;51.494;11.964;2022-09-12T03:09:26;14.47;;;11.97;;
13872;SDS011;7006;51.494;11.964;2022-09-12T03:12:01;15.60;;;11.60;;
13872;SDS011;7006;51.494;11.964;2022-09-12T03:14:48;16.90;;;11.87;;
13872;SDS011;7006;51.494;11.964;2022-09-12T03:17:26;14.23;;;11.90;;
13872;SDS011;7006;51.494;11.964;2022-09-12T03:19:58;15.20;;;11.87;;
13872;SDS011;7006;51.494;11.964;2022-09-12T03:22:32;16.83;;;13.73;;
13872;SDS011;7006;51.494;11.964;2022-09-12T03:25:02;15.73;;;11.80;;
13872;SDS011;7006;51.494;11.964;2022-09-12T03:27:32;14.90;;;12.73;;
13872;SDS011;7006;51.494;11.964;2022-09-12T03:30:00;17.00;;;12.53;;
13872;SDS011;7006;51.494;11.964;2022-09-12T03:32:42;17.87;;;13.10;;
13872;SDS011;7006;51.494;11.964;2022-09-12T03:35:10;15.70;;;12.83;;
13872;SDS011;7006;51.494;11.964;2022-09-12T03:37:38;17.23;;;13.30;;
13872;SDS011;7006;51.494;11.964;2022-09-12T03:40:05;18.47;;;13.00;;
13872;SDS011;7006;51.494;11.964;2022-09-12T03:42:33;18.50;;;13.53;;
13872;SDS011;7006;51.494;11.964;2022-09-12T03:44:59;19.50;;;14.23;;
13872;SDS011;7006;51.494;11.964;2022-09-12T03:47:26;18.40;;;13.73;;
13872;SDS011;7006;51.494;11.964;2022-09-12T03:49:52;18.77;;;13.07;;
13872;SDS011;7006;51.494;11.964;2022-09-12T03:52:19;21.53;;;15.60;;
13872;SDS011;7006;51.494;11.964;2022-09-12T03:54:47;16.30;;;13.03;;
13872;SDS011;7006;51.494;11.964;2022-09-12T03:57:13;18.20;;;14.30;;
13872;SDS011;7006;51.494;11.964;2022-09-12T03:59:40;20.03;;;14.77;;
13872;SDS011;7006;51.494;11.964;2022-09-12T04:02:06;19.90;;;14.70;;
13872;SDS011;7006;51.494;11.964;2022-09-12T04:04:33;19.10;;;14.33;;
13872;SDS011;7006;51.494;11.964;2022-09-12T04:07:00;18.67;;;14.73;;
13872;SDS011;7006;51.494;11.964;2022-09-12T04:09:26;18.30;;;14.30;;
13872;SDS011;7006;51.494;11.964;2022-09-12T04:11:54;17.37;;;13.90;;
13872;SDS011;7006;51.494;11.964;2022-09-12T04:14:21;20.63;;;15.07;;
13872;SDS011;7006;51.494;11.964;2022-09-12T04:16:47;21.10;;;14.97;;
13872;SDS011;7006;51.494;11.964;2022-09-12T04:19:14;19.73;;;15.53;;
13872;SDS011;7006;51.494;11.964;2022-09-12T04:21:40;19.00;;;15.63;;
13872;SDS011;7006;51.494;11.964;2022-09-12T04:24:07;20.90;;;15.20;;
13872;SDS011;7006;51.494;11.964;2022-09-12T04:26:33;22.30;;;16.00;;
13872;SDS011;7006;51.494;11.964;2022-09-12T04:29:01;23.87;;;15.07;;
13872;SDS011;7006;51.494;11.964;2022-09-12T04:31:28;20.10;;;15.33;;
13872;SDS011;7006;51.494;11.964;2022-09-12T04:33:54;17.03;;;12.83;;
13872;SDS011;7006;51.494;11.964;2022-09-12T04:36:22;21.00;;;15.37;;
13872;SDS011;7006;51.494;11.964;2022-09-12T04:38:49;19.63;;;15.20;;
13872;SDS011;7006;51.494;11.964;2022-09-12T04:41:16;18.90;;;15.00;;
13872;SDS011;7006;51.494;11.964;2022-09-12T04:43:44;20.47;;;15.23;;
13872;SDS011;7006;51.494;11.964;2022-09-12T04:46:13;23.50;;;16.33;;
13872;SDS011;7006;51.494;11.964;2022-09-12T04:48:43;22.47;;;16.40;;
13872;SDS011;7006;51.494;11.964;2022-09-12T04:51:10;20.80;;;15.50;;
13872;SDS011;7006;51.494;11.964;2022-09-12T04:53:38;21.97;;;16.10;;
13872;SDS011;7006;51.494;11.964;2022-09-12T04:56:06;23.00;;;16.37;;
13872;SDS011;7006;51.494;11.964;2022-09-12T04:58:33;21.20;;;15.73;;
13872;SDS011;7006;51.494;11.964;2022-09-12T05:01:04;25.80;;;17.73;;
13872;SDS011;7006;51.494;11.964;2022-09-12T05:03:33;23.67;;;17.13;;
13872;SDS011;7006;51.494;11.964;2022-09-12T05:06:00;25.70;;;17.30;;
13872;SDS011;7006;51.494;11.964;2022-09-12T05:08:27;23.83;;;17.43;;
13872;SDS011;7006;51.494;11.964;2022-09-12T05:10:53;25.53;;;18.60;;
13872;SDS011;7006;51.494;11.964;2022-09-12T05:13:21;22.37;;;18.00;;
13872;SDS011;7006;51.494;11.964;2022-09-12T05:15:52;27.43;;;18.40;;
13872;SDS011;7006;51.494;11.964;2022-09-12T05:18:20;25.50;;;17.47;;
13872;SDS011;7006;51.494;11.964;2022-09-12T05:20:48;22.00;;;17.40;;
13872;SDS011;7006;51.494;11.964;2022-09-12T05:23:14;23.70;;;17.67;;
13872;SDS011;7006;51.494;11.964;2022-09-12T05:25:46;22.27;;;17.27;;
13872;SDS011;7006;51.494;11.964;2022-09-12T05:28:13;23.53;;;17.00;;
13872;SDS011;7006;51.494;11.964;2022-09-12T05:30:40;23.17;;;18.00;;
13872;SDS011;7006;51.494;11.964;2022-09-12T05:33:06;25.40;;;19.00;;
13872;SDS011;7006;51.494;11.964;2022-09-12T05:35:33;24.50;;;18.10;;
13872;SDS011;7006;51.494;11.964;2022-09-12T05:38:03;26.97;;;18.60;;
13872;SDS011;7006;51.494;11.964;2022-09-12T05:40:30;25.67;;;18.90;;
13872;SDS011;7006;51.494;11.964;2022-09-12T05:42:56;27.38;;;21.10;;
13872;SDS011;7006;51.494;11.964;2022-09-12T05:45:23;24.23;;;19.30;;
13872;SDS011;7006;51.494;11.964;2022-09-12T05:47:51;32.13;;;19.07;;
13872;SDS011;7006;51.494;11.964;2022-09-12T05:50:18;24.53;;;18.27;;
13872;SDS011;7006;51.494;11.964;2022-09-12T05:52:44;26.23;;;18.17;;
13872;SDS011;7006;51.494;11.964;2022-09-12T05:55:12;25.83;;;16.70;;
13872;SDS011;7006;51.494;11.964;2022-09-12T05:57:39;25.10;;;16.90;;
13872;SDS011;7006;51.494;11.964;2022-09-12T06:00:10;19.90;;;15.07;;
13872;SDS011;7006;51.494;11.964;2022-09-12T06:02:38;22.73;;;16.63;;
13872;SDS011;7006;51.494;11.964;2022-09-12T06:05:05;20.97;;;16.63;;
13872;SDS011;7006;51.494;11.964;2022-09-12T06:07:32;24.37;;;16.50;;
13872;SDS011;7006;51.494;11.964;2022-09-12T06:09:59;22.27;;;16.17;;
13872;SDS011;7006;51.494;11.964;2022-09-12T06:12:28;23.80;;;17.03;;
13872;SDS011;7006;51.494;11.964;2022-09-12T06:14:54;22.70;;;16.57;;
13872;SDS011;7006;51.494;11.964;2022-09-12T06:17:21;25.30;;;17.70;;
13872;SDS011;7006;51.494;11.964;2022-09-12T06:19:47;21.87;;;15.77;;
13872;SDS011;7006;51.494;11.964;2022-09-12T06:22:15;20.80;;;16.17;;
13872;SDS011;7006;51.494;11.964;2022-09-12T06:24:42;23.87;;;17.27;;
13872;SDS011;7006;51.494;11.964;2022-09-12T06:27:09;20.67;;;17.10;;
13872;SDS011;7006;51.494;11.964;2022-09-12T06:29:37;19.03;;;15.77;;
13872;SDS011;7006;51.494;11.964;2022-09-12T06:32:03;21.30;;;17.00;;
13872;SDS011;7006;51.494;11.964;2022-09-12T06:34:30;19.47;;;15.07;;
13872;SDS011;7006;51.494;11.964;2022-09-12T06:36:57;20.50;;;15.83;;
13872;SDS011;7006;51.494;11.964;2022-09-12T06:39:24;18.00;;;14.67;;
13872;SDS011;7006;51.494;11.964;2022-09-12T06:41:50;20.03;;;15.60;;
13872;SDS011;7006;51.494;11.964;2022-09-12T06:44:18;20.23;;;15.07;;
13872;SDS011;7006;51.494;11.964;2022-09-12T06:46:46;18.80;;;15.80;;
13872;SDS011;7006;51.494;11.964;2022-09-12T06:49:13;17.70;;;15.03;;
13872;SDS011;7006;51.494;11.964;2022-09-12T06:51:41;18.07;;;15.33;;
13872;SDS011;7006;51.494;11.964;2022-09-12T06:54:08;23.43;;;16.33;;
13872;SDS011;7006;51.494;11.964;2022-09-12T06:56:37;19.43;;;16.20;;
13872;SDS011;7006;51.494;11.964;2022-09-12T06:59:04;18.87;;;15.30;;
13872;SDS011;7006;51.494;11.964;2022-09-12T07:01:31;22.83;;;16.07;;
13872;SDS011;7006;51.494;11.964;2022-09-12T07:03:59;17.33;;;14.93;;
13872;SDS011;7006;51.494;11.964;2022-09-12T07:06:28;23.00;;;15.43;;
13872;SDS011;7006;51.494;11.964;2022-09-12T07:08:56;18.90;;;15.87;;
13872;SDS011;7006;51.494;11.964;2022-09-12T07:11:24;19.27;;;16.03;;
13872;SDS011;7006;51.494;11.964;2022-09-12T07:13:52;19.70;;;15.47;;
13872;SDS011;7006;51.494;11.964;2022-09-12T07:16:20;20.47;;;14.87;;
13872;SDS011;7006;51.494;11.964;2022-09-12T07:18:48;21.23;;;15.77;;
13872;SDS011;7006;51.494;11.964;2022-09-12T07:21:16;19.07;;;15.23;;
13872;SDS011;7006;51.494;11.964;2022-09-12T07:23:43;17.70;;;14.30;;
13872;SDS011;7006;51.494;11.964;2022-09-12T07:26:10;22.13;;;15.33;;
13872;SDS011;7006;51.494;11.964;2022-09-12T07:28:38;19.60;;;14.77;;
13872;SDS011;7006;51.494;11.964;2022-09-12T07:31:05;19.17;;;14.80;;
13872;SDS011;7006;51.494;11.964;2022-09-12T07:33:32;17.57;;;14.33;;
13872;SDS011;7006;51.494;11.964;2022-09-12T07:35:59;17.73;;;13.80;;
13872;SDS011;7006;51.494;11.964;2022-09-12T07:38:27;19.10;;;13.80;;
13872;SDS011;7006;51.494;11.964;2022-09-12T07:40:54;16.40;;;14.30;;
13872;SDS011;7006;51.494;11.964;2022-09-12T07:43:21;17.70;;;14.60;;
13872;SDS011;7006;51.494;11.964;2022-09-12T07:45:47;18.20;;;14.60;;
13872;SDS011;7006;51.494;11.964;2022-09-12T07:48:14;17.80;;;14.80;;
13872;SDS011;7006;51.494;11.964;2022-09-12T07:50:41;14.43;;;12.43;;
13872;SDS011;7006;51.494;11.964;2022-09-12T07:53:07;16.73;;;14.23;;
13872;SDS011;7006;51.494;11.964;2022-09-12T07:55:36;16.93;;;13.27;;
13872;SDS011;7006;51.494;11.964;2022-09-12T07:58:03;19.50;;;16.10;;
13872;SDS011;7006;51.494;11.964;2022-09-12T08:00:29;17.33;;;14.13;;
13872;SDS011;7006;51.494;11.964;2022-09-12T08:03:00;23.10;;;14.57;;
13872;SDS011;7006;51.494;11.964;2022-09-12T08:05:27;17.10;;;13.37;;
13872;SDS011;7006;51.494;11.964;2022-09-12T08:07:55;15.97;;;13.47;;
13872;SDS011;7006;51.494;11.964;2022-09-12T08:10:21;16.37;;;13.60;;
13872;SDS011;7006;51.494;11.964;2022-09-12T08:12:49;18.37;;;13.53;;
13872;SDS011;7006;51.494;11.964;2022-09-12T08:15:15;16.13;;;12.67;;
13872;SDS011;7006;51.494;11.964;2022-09-12T08:17:44;22.67;;;13.40;;
13872;SDS011;7006;51.494;11.964;2022-09-12T08:20:10;16.43;;;13.20;;
13872;SDS011;7006;51.494;11.964;2022-09-12T08:22:37;14.80;;;11.90;;
13872;SDS011;7006;51.494;11.964;2022-09-12T08:25:04;13.83;;;12.20;;
13872;SDS011;7006;51.494;11.964;2022-09-12T08:27:31;15.27;;;12.00;;
13872;SDS011;7006;51.494;11.964;2022-09-12T08:29:59;14.90;;;12.33;;
13872;SDS011;7006;51.494;11.964;2022-09-12T08:32:25;17.60;;;12.13;;
13872;SDS011;7006;51.494;11.964;2022-09-12T08:34:52;17.03;;;11.60;;
13872;SDS011;7006;51.494;11.964;2022-09-12T08:37:18;16.67;;;12.93;;
13872;SDS011;7006;51.494;11.964;2022-09-12T08:39:45;15.10;;;11.40;;
13872;SDS011;7006;51.494;11.964;2022-09-12T08:42:14;15.17;;;12.37;;
13872;SDS011;7006;51.494;11.964;2022-09-12T08:44:54;12.80;;;11.27;;
13872;SDS011;7006;51.494;11.964;2022-09-12T08:47:29;14.13;;;12.27;;
13872;SDS011;7006;51.494;11.964;2022-09-12T08:49:59;11.03;;;9.53;;
13872;SDS011;7006;51.494;11.964;2022-09-12T08:52:30;14.50;;;11.57;;
13872;SDS011;7006;51.494;11.964;2022-09-12T08:55:01;15.57;;;11.40;;
13872;SDS011;7006;51.494;11.964;2022-09-12T08:57:28;12.87;;;10.40;;
13872;SDS011;7006;51.494;11.964;2022-09-12T08:59:54;13.17;;;10.83;;
13872;SDS011;7006;51.494;11.964;2022-09-12T09:02:30;14.00;;;12.50;;
13872;SDS011;7006;51.494;11.964;2022-09-12T09:05:13;11.70;;;10.10;;
13872;SDS011;7006;51.494;11.964;2022-09-12T09:10:38;10.50;;;9.40;;
13872;SDS011;7006;51.494;11.964;2022-09-12T09:13:13;10.27;;;8.83;;
13872;SDS011;7006;51.494;11.964;2022-09-12T09:16:06;9.27;;;7.80;;
13872;SDS011;7006;51.494;11.964;2022-09-12T09:18:36;10.40;;;8.50;;
13872;SDS011;7006;51.494;11.964;2022-09-12T09:21:04;10.40;;;8.00;;
13872;SDS011;7006;51.494;11.964;2022-09-12T09:23:45;7.37;;;6.63;;
13872;SDS011;7006;51.494;11.964;2022-09-12T09:26:15;9.43;;;8.27;;
13872;SDS011;7006;51.494;11.964;2022-09-12T09:28:44;7.90;;;5.53;;
13872;SDS011;7006;51.494;11.964;2022-09-12T09:31:13;6.40;;;5.77;;
13872;SDS011;7006;51.494;11.964;2022-09-12T09:33:41;9.20;;;6.80;;
13872;SDS011;7006;51.494;11.964;2022-09-12T09:36:11;7.80;;;6.80;;
13872;SDS011;7006;51.494;11.964;2022-09-12T09:38:44;7.43;;;6.63;;
13872;SDS011;7006;51.494;11.964;2022-09-12T09:41:26;7.03;;;5.73;;
13872;SDS011;7006;51.494;11.964;2022-09-12T09:44:00;8.90;;;5.10;;
13872;SDS011;7006;51.494;11.964;2022-09-12T09:46:27;6.10;;;5.27;;
13872;SDS011;7006;51.494;11.964;2022-09-12T09:48:55;5.60;;;4.87;;
13872;SDS011;7006;51.494;11.964;2022-09-12T09:51:24;5.50;;;4.43;;
13872;SDS011;7006;51.494;11.964;2022-09-12T09:53:53;4.90;;;4.40;;
13872;SDS011;7006;51.494;11.964;2022-09-12T09:56:25;5.27;;;4.40;;
13872;SDS011;7006;51.494;11.964;2022-09-12T09:58:53;7.63;;;5.13;;
13872;SDS011;7006;51.494;11.964;2022-09-12T10:01:19;7.40;;;5.00;;
13872;SDS011;7006;51.494;11.964;2022-09-12T10:03:47;4.87;;;4.37;;
13872;SDS011;7006;51.494;11.964;2022-09-12T10:06:24;7.77;;;5.83;;
13872;SDS011;7006;51.494;11.964;2022-09-12T10:09:02;7.40;;;6.70;;
13872;SDS011;7006;51.494;11.964;2022-09-12T10:11:31;7.60;;;6.40;;
13872;SDS011;7006;51.494;11.964;2022-09-12T10:13:58;6.43;;;5.83;;
13872;SDS011;7006;51.494;11.964;2022-09-12T10:16:25;7.10;;;6.40;;
13872;SDS011;7006;51.494;11.964;2022-09-12T10:18:53;6.73;;;6.03;;
13872;SDS011;7006;51.494;11.964;2022-09-12T10:21:24;5.93;;;5.37;;
13872;SDS011;7006;51.494;11.964;2022-09-12T10:23:58;5.67;;;4.67;;
13872;SDS011;7006;51.494;11.964;2022-09-12T10:26:30;5.03;;;4.53;;
13872;SDS011;7006;51.494;11.964;2022-09-12T10:29:02;5.73;;;5.13;;
13872;SDS011;7006;51.494;11.964;2022-09-12T10:31:33;5.70;;;4.90;;
13872;SDS011;7006;51.494;11.964;2022-09-12T10:34:09;5.00;;;4.50;;
13872;SDS011;7006;51.494;11.964;2022-09-12T10:36:59;5.27;;;4.77;;
13872;SDS011;7006;51.494;11.964;2022-09-12T10:39:27;5.83;;;4.40;;
13872;SDS011;7006;51.494;11.964;2022-09-12T10:41:55;4.80;;;4.30;;
13872;SDS011;7006;51.494;11.964;2022-09-12T10:44:23;5.13;;;4.00;;
13872;SDS011;7006;51.494;11.964;2022-09-12T10:46:51;5.20;;;4.70;;
13872;SDS011;7006;51.494;11.964;2022-09-12T10:49:20;4.67;;;4.17;;
13872;SDS011;7006;51.494;11.964;2022-09-12T10:51:51;5.00;;;3.97;;
13872;SDS011;7006;51.494;11.964;2022-09-12T10:54:21;5.00;;;4.33;;
13872;SDS011;7006;51.494;11.964;2022-09-12T10:56:51;4.90;;;4.40;;
13872;SDS011;7006;51.494;11.964;2022-09-12T10:59:29;4.40;;;4.00;;
13872;SDS011;7006;51.494;11.964;2022-09-12T11:01:59;4.10;;;3.70;;
13872;SDS011;7006;51.494;11.964;2022-09-12T11:04:28;4.40;;;3.50;;
13872;SDS011;7006;51.494;11.964;2022-09-12T11:09:49;4.83;;;4.33;;
13872;SDS011;7006;51.494;11.964;2022-09-12T11:12:21;4.57;;;3.63;;
13872;SDS011;7006;51.494;11.964;2022-09-12T11:14:55;5.40;;;4.20;;
13872;SDS011;7006;51.494;11.964;2022-09-12T11:20:21;4.23;;;3.60;;
13872;SDS011;7006;51.494;11.964;2022-09-12T11:23:33;4.10;;;3.70;;
13872;SDS011;7006;51.494;11.964;2022-09-12T11:26:12;4.33;;;3.90;;
13872;SDS011;7006;51.494;11.964;2022-09-12T11:28:49;4.30;;;3.90;;
13872;SDS011;7006;51.494;11.964;2022-09-12T11:31:29;4.60;;;4.20;;
13872;SDS011;7006;51.494;11.964;2022-09-12T11:34:23;4.63;;;3.67;;
13872;SDS011;7006;51.494;11.964;2022-09-12T11:36:54;5.70;;;3.93;;
13872;SDS011;7006;51.494;11.964;2022-09-12T11:39:35;4.33;;;3.93;;
13872;SDS011;7006;51.494;11.964;2022-09-12T11:42:11;3.93;;;3.30;;
13872;SDS011;7006;51.494;11.964;2022-09-12T11:44:44;4.33;;;3.30;;
13872;SDS011;7006;51.494;11.964;2022-09-12T11:47:12;5.03;;;3.50;;
13872;SDS011;7006;51.494;11.964;2022-09-12T11:49:44;5.63;;;3.63;;
13872;SDS011;7006;51.494;11.964;2022-09-12T11:52:17;4.03;;;3.57;;
13872;SDS011;7006;51.494;11.964;2022-09-12T11:54:51;6.00;;;3.37;;
13872;SDS011;7006;51.494;11.964;2022-09-12T11:57:24;3.97;;;3.50;;
13872;SDS011;7006;51.494;11.964;2022-09-12T11:59:58;4.40;;;3.43;;
13872;SDS011;7006;51.494;11.964;2022-09-12T12:02:28;4.43;;;3.30;;
13872;SDS011;7006;51.494;11.964;2022-09-12T12:05:02;4.53;;;4.03;;
13872;SDS011;7006;51.494;11.964;2022-09-12T12:07:40;9.27;;;7.77;;
13872;SDS011;7006;51.494;11.964;2022-09-12T12:10:20;5.20;;;3.90;;
13872;SDS011;7006;51.494;11.964;2022-09-12T12:12:50;8.43;;;5.07;;
13872;SDS011;7006;51.494;11.964;2022-09-12T12:15:18;4.37;;;3.37;;
13872;SDS011;7006;51.494;11.964;2022-09-12T12:17:45;7.20;;;3.40;;
13872;SDS011;7006;51.494;11.964;2022-09-12T12:20:25;3.33;;;3.03;;
13872;SDS011;7006;51.494;11.964;2022-09-12T12:22:55;3.70;;;3.27;;
13872;SDS011;7006;51.494;11.964;2022-09-12T12:25:24;3.80;;;3.23;;
13872;SDS011;7006;51.494;11.964;2022-09-12T12:27:54;4.37;;;3.50;;
13872;SDS011;7006;51.494;11.964;2022-09-12T12:36:33;4.50;;;3.97;;
13872;SDS011;7006;51.494;11.964;2022-09-12T12:48:48;4.53;;;3.20;;
13872;SDS011;7006;51.494;11.964;2022-09-12T12:54:08;3.70;;;3.30;;
13872;SDS011;7006;51.494;11.964;2022-09-12T12:57:14;3.80;;;2.90;;
13872;SDS011;7006;51.494;11.964;2022-09-12T12:59:46;3.03;;;2.60;;
13872;SDS011;7006;51.494;11.964;2022-09-12T13:02:17;4.20;;;3.07;;
13872;SDS011;7006;51.494;11.964;2022-09-12T13:04:51;3.70;;;2.90;;
13872;SDS011;7006;51.494;11.964;2022-09-12T13:07:26;4.00;;;2.80;;
13872;SDS011;7006;51.494;11.964;2022-09-12T13:10:18;3.47;;;2.80;;
13872;SDS011;7006;51.494;11.964;2022-09-12T13:12:47;3.50;;;3.10;;
13872;SDS011;7006;51.494;11.964;2022-09-12T13:18:20;3.50;;;2.90;;
13872;SDS011;7006;51.494;11.964;2022-09-12T13:23:41;5.23;;;3.00;;
13872;SDS011;7006;51.494;11.964;2022-09-12T13:26:09;5.50;;;3.00;;
13872;SDS011;7006;51.494;11.964;2022-09-12T13:28:37;2.90;;;2.60;;
13872;SDS011;7006;51.494;11.964;2022-09-12T13:31:06;4.20;;;2.70;;
13872;SDS011;7006;51.494;11.964;2022-09-12T13:33:38;4.70;;;2.83;;
13872;SDS011;7006;51.494;11.964;2022-09-12T13:39:13;4.80;;;2.87;;
13872;SDS011;7006;51.494;11.964;2022-09-12T13:41:50;3.20;;;2.70;;
13872;SDS011;7006;51.494;11.964;2022-09-12T13:44:40;2.87;;;2.40;;
13872;SDS011;7006;51.494;11.964;2022-09-12T13:47:12;3.80;;;2.50;;
13872;SDS011;7006;51.494;11.964;2022-09-12T13:49:44;3.63;;;2.50;;
13872;SDS011;7006;51.494;11.964;2022-09-12T13:52:14;2.80;;;2.13;;
13872;SDS011;7006;51.494;11.964;2022-09-12T13:54:43;2.93;;;2.27;;
13872;SDS011;7006;51.494;11.964;2022-09-12T13:57:25;4.33;;;2.47;;
13872;SDS011;7006;51.494;11.964;2022-09-12T13:59:53;3.17;;;2.17;;
13872;SDS011;7006;51.494;11.964;2022-09-12T14:02:25;3.47;;;1.77;;
13872;SDS011;7006;51.494;11.964;2022-09-12T14:04:54;3.07;;;2.50;;
13872;SDS011;7006;51.494;11.964;2022-09-12T14:07:37;2.80;;;2.20;;
13872;SDS011;7006;51.494;11.964;2022-09-12T14:10:20;3.60;;;2.80;;
13872;SDS011;7006;51.494;11.964;2022-09-12T14:12:52;4.80;;;2.80;;
13872;SDS011;7006;51.494;11.964;2022-09-12T14:15:25;3.63;;;2.33;;
13872;SDS011;7006;51.494;11.964;2022-09-12T14:17:53;2.90;;;2.30;;
13872;SDS011;7006;51.494;11.964;2022-09-12T14:20:23;3.87;;;2.50;;
13872;SDS011;7006;51.494;11.964;2022-09-12T14:22:51;3.20;;;2.43;;
13872;SDS011;7006;51.494;11.964;2022-09-12T14:25:18;3.27;;;2.20;;
13872;SDS011;7006;51.494;11.964;2022-09-12T14:27:49;2.40;;;2.10;;
13872;SDS011;7006;51.494;11.964;2022-09-12T14:30:19;3.60;;;3.00;;
13872;SDS011;7006;51.494;11.964;2022-09-12T14:33:01;3.20;;;2.90;;
13872;SDS011;7006;51.494;11.964;2022-09-12T14:35:28;3.23;;;2.53;;
13872;SDS011;7006;51.494;11.964;2022-09-12T14:38:05;3.50;;;2.30;;
13872;SDS011;7006;51.494;11.964;2022-09-12T14:40:32;3.87;;;2.80;;
13872;SDS011;7006;51.494;11.964;2022-09-12T14:43:16;2.97;;;2.20;;
13872;SDS011;7006;51.494;11.964;2022-09-12T14:45:48;2.87;;;2.17;;
13872;SDS011;7006;51.494;11.964;2022-09-12T14:48:17;4.33;;;2.50;;
13872;SDS011;7006;51.494;11.964;2022-09-12T14:50:47;3.17;;;2.67;;
13872;SDS011;7006;51.494;11.964;2022-09-12T14:53:21;3.63;;;3.00;;
13872;SDS011;7006;51.494;11.964;2022-09-12T14:55:50;3.23;;;2.53;;
13872;SDS011;7006;51.494;11.964;2022-09-12T14:58:22;4.20;;;2.67;;
13872;SDS011;7006;51.494;11.964;2022-09-12T15:00:53;5.03;;;2.67;;
13872;SDS011;7006;51.494;11.964;2022-09-12T15:03:30;3.83;;;2.40;;
13872;SDS011;7006;51.494;11.964;2022-09-12T15:05:58;4.70;;;2.60;;
13872;SDS011;7006;51.494;11.964;2022-09-12T15:08:30;4.07;;;2.90;;
13872;SDS011;7006;51.494;11.964;2022-09-12T15:10:58;7.50;;;2.67;;
13872;SDS011;7006;51.494;11.964;2022-09-12T15:13:25;4.27;;;2.73;;
13872;SDS011;7006;51.494;11.964;2022-09-12T15:15:56;3.77;;;3.00;;
13872;SDS011;7006;51.494;11.964;2022-09-12T15:18:27;5.07;;;3.17;;
13872;SDS011;7006;51.494;11.964;2022-09-12T15:20:54;3.83;;;3.03;;
13872;SDS011;7006;51.494;11.964;2022-09-12T15:23:27;3.40;;;2.80;;
13872;SDS011;7006;51.494;11.964;2022-09-12T15:26:00;3.63;;;2.80;;